Time;durP1;ratioP1;P1;durP2;ratioP2;P2;SDS_P1;SDS_P2;PMS_P1;PMS_P2;Temp;Humidity;BMP_temperature;BMP_pressure;BME280_temperature;BME280_humidity;BME280_pressure;Samples;Min_cycle;Max_cycle;Signal;HPM_P1;HPM_P2
2023/03/06 00:00:54;;;;;;;5.88;3.40;;;;;;;2.77;95.58;100868.19;5015552;28;20063;-93
2023/03/06 00:03:19;;;;;;;6.80;3.50;;;;;;;2.78;95.08;100865.69;5013177;28;20038;-91
2023/03/06 00:05:44;;;;;;;6.03;3.55;;;;;;;2.78;95.15;100864.78;5017953;28;20040;-92
2023/03/06 00:08:10;;;;;;;6.93;3.83;;;;;;;2.76;95.46;100861.25;4986725;28;20026;-92
2023/03/06 00:10:56;;;;;;;5.80;3.50;;;;;;;2.77;95.58;100863.03;4989416;28;20037;-92
2023/03/06 00:13:22;;;;;;;7.22;3.90;;;;;;;2.78;95.24;100864.78;5001277;28;20029;-91
2023/03/06 00:15:52;;;;;;;6.63;3.55;;;;;;;2.78;95.33;100849.34;4998310;28;20127;-92
2023/03/06 00:18:18;;;;;;;7.25;3.63;;;;;;;2.78;95.20;100849.34;4996466;28;20029;-92
2023/03/06 00:20:43;;;;;;;5.18;3.35;;;;;;;2.75;95.19;100852.66;4997853;28;20034;-93
2023/03/06 00:23:10;;;;;;;6.28;3.60;;;;;;;2.70;95.38;100848.06;4988899;28;20026;-93
2023/03/06 00:25:37;;;;;;;5.63;3.67;;;;;;;2.64;95.86;100848.59;5002017;28;20103;-93
2023/03/06 00:28:04;;;;;;;6.07;3.47;;;;;;;2.65;96.16;100841.75;4987324;28;20038;-93
2023/03/06 00:30:29;;;;;;;7.30;3.92;;;;;;;2.63;96.22;100848.53;4984709;28;20076;-92
2023/03/06 00:32:55;;;;;;;6.18;3.45;;;;;;;2.59;96.35;100838.06;4999567;28;20487;-92
2023/03/06 00:35:20;;;;;;;6.45;3.72;;;;;;;2.57;96.86;100839.66;5000913;28;20165;-92
2023/03/06 00:37:48;;;;;;;6.75;3.60;;;;;;;2.55;96.62;100833.53;4990901;28;20021;-92
2023/03/06 00:40:16;;;;;;;6.97;3.95;;;;;;;2.51;96.65;100833.31;4996709;28;20161;-93
2023/03/06 00:42:41;;;;;;;7.05;3.90;;;;;;;2.51;97.30;100829.03;4984198;28;20034;-93
2023/03/06 00:45:08;;;;;;;7.40;3.95;;;;;;;2.52;96.77;100829.91;5002674;28;20029;-93
2023/03/06 00:47:36;;;;;;;6.03;3.72;;;;;;;2.55;97.47;100832.63;4987100;28;20053;-92
2023/03/06 00:50:01;;;;;;;8.20;4.03;;;;;;;2.57;96.98;100823.34;4998048;28;20458;-92
2023/03/06 00:52:26;;;;;;;6.65;3.90;;;;;;;2.61;96.71;100815.88;4987269;28;20106;-92
2023/03/06 00:54:52;;;;;;;7.18;4.15;;;;;;;2.61;96.50;100823.59;4989894;28;20598;-93
2023/03/06 00:57:17;;;;;;;6.82;4.13;;;;;;;2.55;96.23;100809.50;4990482;28;20415;-92
2023/03/06 00:59:42;;;;;;;6.50;4.13;;;;;;;2.51;96.69;100811.03;5000356;28;20527;-92
2023/03/06 01:02:08;;;;;;;6.97;3.90;;;;;;;2.46;96.76;100809.88;4977219;28;20050;-92
2023/03/06 01:04:33;;;;;;;7.65;4.18;;;;;;;2.42;96.77;100813.09;5003311;28;20025;-92
2023/03/06 01:06:59;;;;;;;7.45;4.15;;;;;;;2.37;96.71;100802.53;4990092;28;20456;-92
2023/03/06 01:09:28;;;;;;;7.18;4.20;;;;;;;2.33;97.01;100813.47;4990955;28;20037;-92
2023/03/06 01:11:54;;;;;;;6.40;3.65;;;;;;;2.29;96.47;100800.34;4990639;28;20029;-93
2023/03/06 01:14:23;;;;;;;6.80;4.03;;;;;;;2.28;96.86;100799.47;4988545;28;20080;-92
2023/03/06 01:16:48;;;;;;;9.82;4.80;;;;;;;2.30;96.22;100804.69;5000803;28;20030;-92
2023/03/06 01:19:15;;;;;;;8.13;4.63;;;;;;;2.26;96.17;100801.94;4989285;28;20037;-92
2023/03/06 01:21:40;;;;;;;8.27;4.80;;;;;;;2.23;96.63;100803.44;4988361;28;20109;-92
2023/03/06 01:24:06;;;;;;;8.02;4.43;;;;;;;2.21;96.68;100799.91;4989311;28;20134;-93
2023/03/06 01:26:32;;;;;;;9.68;5.00;;;;;;;2.18;96.98;100800.63;4989204;28;20042;-93
2023/03/06 01:29:00;;;;;;;6.50;4.50;;;;;;;2.16;96.33;100807.38;4968215;28;20058;-92
2023/03/06 01:31:25;;;;;;;8.88;4.85;;;;;;;2.13;96.35;100794.34;4977259;28;20694;-92
2023/03/06 01:33:51;;;;;;;7.82;4.50;;;;;;;2.12;96.28;100795.13;4981474;28;20084;-93
2023/03/06 01:36:17;;;;;;;8.07;4.57;;;;;;;2.12;96.89;100795.13;5001653;28;20423;-93
2023/03/06 01:38:47;;;;;;;8.20;4.60;;;;;;;2.11;96.73;100800.19;4978756;28;20172;-92
2023/03/06 01:41:14;;;;;;;8.15;4.40;;;;;;;2.09;96.89;100788.13;4991185;28;20071;-93
2023/03/06 01:43:44;;;;;;;7.30;4.82;;;;;;;2.09;96.50;100793.28;4987545;28;20030;-91
2023/03/06 01:46:28;;;;;;;8.80;5.20;;;;;;;2.09;96.32;100792.41;4986758;28;20025;-93
2023/03/06 01:49:19;;;;;;;8.07;4.72;;;;;;;2.05;96.15;100788.75;4984695;28;20514;-93
2023/03/06 01:52:01;;;;;;;8.15;4.85;;;;;;;2.03;96.02;100781.78;4997149;28;20025;-92
2023/03/06 01:54:59;;;;;;;8.80;4.75;;;;;;;1.97;96.37;100771.13;4990183;28;20608;-93
2023/03/06 01:57:37;;;;;;;8.48;4.60;;;;;;;1.91;96.42;100772.56;4989619;28;20645;-93
2023/03/06 02:00:07;;;;;;;8.68;4.95;;;;;;;1.87;96.33;100772.31;5003854;28;20069;-92
2023/03/06 02:02:33;;;;;;;8.45;4.70;;;;;;;1.85;96.14;100771.31;5006803;28;20038;-93
2023/03/06 02:05:00;;;;;;;8.30;5.07;;;;;;;1.77;96.76;100763.19;4989816;28;20565;-93
2023/03/06 02:07:27;;;;;;;8.85;4.82;;;;;;;1.75;96.08;100769.88;4989108;28;20029;-92
2023/03/06 02:09:55;;;;;;;9.60;4.60;;;;;;;1.75;96.92;100759.63;4989642;28;20033;-93
2023/03/06 02:12:21;;;;;;;8.02;4.72;;;;;;;1.76;96.53;100766.53;5008039;28;20072;-92
2023/03/06 02:14:47;;;;;;;7.68;4.72;;;;;;;1.74;96.75;100758.75;4990087;28;20022;-93
2023/03/06 02:17:18;;;;;;;7.95;4.68;;;;;;;1.71;96.30;100762.84;5006908;28;20088;-91
2023/03/06 02:19:58;;;;;;;8.00;4.57;;;;;;;1.70;95.80;100758.47;4982174;28;20186;-92
2023/03/06 02:22:35;;;;;;;8.45;4.53;;;;;;;1.63;96.58;100749.53;4988286;28;20092;-92
2023/03/06 02:25:08;;;;;;;8.93;4.75;;;;;;;1.61;95.95;100746.00;5007504;28;20092;-93
2023/03/06 02:27:34;;;;;;;7.82;4.60;;;;;;;1.56;96.20;100753.44;4990579;28;20034;-93
2023/03/06 02:30:03;;;;;;;9.70;4.75;;;;;;;1.48;96.36;100743.53;4990640;28;20221;-93
2023/03/06 02:32:29;;;;;;;9.10;5.07;;;;;;;1.43;97.12;100740.66;5000454;28;20025;-93
2023/03/06 02:34:57;;;;;;;7.03;4.35;;;;;;;1.36;97.26;100739.44;4988736;28;20033;-93
2023/03/06 02:37:24;;;;;;;8.52;4.72;;;;;;;1.36;96.67;100735.97;4989667;28;20026;-92
2023/03/06 02:40:05;;;;;;;9.25;4.47;;;;;;;1.37;96.31;100740.31;4985174;28;20133;-92
2023/03/06 02:42:30;;;;;;;7.50;4.05;;;;;;;1.35;96.38;100729.06;5005989;28;20038;-92
2023/03/06 02:44:59;;;;;;;9.10;4.78;;;;;;;1.35;96.81;100729.06;4986953;28;20029;-92
2023/03/06 02:47:24;;;;;;;8.97;4.40;;;;;;;1.37;96.52;100730.03;5006557;28;20042;-92
2023/03/06 02:49:50;;;;;;;8.73;4.57;;;;;;;1.35;96.56;100718.81;5005241;28;20288;-92
2023/03/06 02:52:21;;;;;;;7.65;4.20;;;;;;;1.30;96.26;100726.22;4991593;28;20014;-91
2023/03/06 02:54:46;;;;;;;8.98;4.40;;;;;;;1.30;95.96;100726.22;4987639;28;20025;-92
2023/03/06 02:57:11;;;;;;;8.25;4.75;;;;;;;1.29;96.60;100721.00;4988530;28;20032;-92
2023/03/06 02:59:37;;;;;;;8.48;4.80;;;;;;;1.25;96.64;100717.38;5008323;28;20398;-91
2023/03/06 03:02:02;;;;;;;7.63;4.53;;;;;;;1.22;96.26;100719.75;5009952;28;20402;-92
2023/03/06 03:04:28;;;;;;;9.50;4.68;;;;;;;1.19;96.42;100723.03;5008180;28;20055;-91
2023/03/06 03:06:55;;;;;;;7.85;4.57;;;;;;;1.17;97.03;100721.16;4991925;28;20033;-92
2023/03/06 03:09:21;;;;;;;8.18;4.65;;;;;;;1.16;97.02;100711.69;4992122;28;20099;-92
2023/03/06 03:11:46;;;;;;;8.57;4.25;;;;;;;1.16;96.59;100716.81;4991881;28;20511;-91
2023/03/06 03:14:12;;;;;;;7.40;4.43;;;;;;;1.17;96.63;100709.22;4991606;28;20077;-93
2023/03/06 03:16:37;;;;;;;9.10;3.92;;;;;;;1.19;96.27;100709.31;4992128;28;20503;-91
2023/03/06 03:19:02;;;;;;;7.78;4.38;;;;;;;1.18;96.71;100705.84;4992233;28;20030;-93
2023/03/06 03:21:28;;;;;;;7.53;4.60;;;;;;;1.16;96.57;100706.53;4997282;28;20088;-92
2023/03/06 03:23:53;;;;;;;9.27;4.20;;;;;;;1.16;96.52;100706.53;4991625;28;20092;-92
2023/03/06 03:26:20;;;;;;;8.23;4.40;;;;;;;1.16;96.47;100702.31;5008446;28;20129;-92
2023/03/06 03:28:46;;;;;;;7.57;4.20;;;;;;;1.16;95.54;100709.13;5007116;28;20030;-92
2023/03/06 03:31:11;;;;;;;7.57;4.05;;;;;;;1.14;95.46;100695.31;4988013;28;20033;-92
2023/03/06 03:33:37;;;;;;;7.63;4.03;;;;;;;1.11;95.68;100690.88;4991489;28;20026;-91
2023/03/06 03:36:05;;;;;;;7.97;4.18;;;;;;;1.11;96.06;100685.75;4990541;28;20037;-93
2023/03/06 03:38:30;;;;;;;7.65;4.22;;;;;;;1.10;95.94;100685.66;5011605;28;20041;-92
2023/03/06 03:40:58;;;;;;;7.78;4.28;;;;;;;1.12;95.19;100691.78;5011725;28;20029;-92
2023/03/06 03:43:23;;;;;;;7.78;4.15;;;;;;;1.09;94.97;100677.09;5010349;28;20036;-92
2023/03/06 03:45:49;;;;;;;8.32;4.38;;;;;;;1.06;95.29;100679.47;5010964;28;20037;-92
2023/03/06 03:48:14;;;;;;;11.10;4.90;;;;;;;1.02;95.82;100673.25;5025453;28;20029;-92
2023/03/06 03:50:39;;;;;;;7.90;4.25;;;;;;;1.01;95.44;100668.06;5011834;28;20029;-92
2023/03/06 03:53:04;;;;;;;8.32;4.65;;;;;;;0.95;96.38;100663.44;5023315;28;20367;-92
2023/03/06 03:55:30;;;;;;;8.90;4.78;;;;;;;0.92;96.89;100665.81;5008866;28;20037;-92
2023/03/06 03:57:56;;;;;;;8.05;4.82;;;;;;;0.93;96.51;100662.47;5014007;28;20030;-92
2023/03/06 04:00:21;;;;;;;8.90;4.43;;;;;;;0.95;96.15;100657.44;5009608;28;20026;-93
2023/03/06 04:02:46;;;;;;;10.50;4.57;;;;;;;0.93;96.28;100653.88;5023109;28;20033;-93
2023/03/06 04:05:14;;;;;;;9.23;5.05;;;;;;;0.92;96.81;100657.25;5006014;28;20116;-92
2023/03/06 04:07:41;;;;;;;9.35;5.00;;;;;;;0.87;96.94;100649.28;4998821;28;20510;-92
2023/03/06 04:10:11;;;;;;;9.70;5.00;;;;;;;0.84;97.45;100649.09;5008194;28;20025;-92
2023/03/06 04:12:40;;;;;;;9.85;5.25;;;;;;;0.83;97.56;100653.34;5021806;28;20034;-93
2023/03/06 04:15:09;;;;;;;10.23;5.90;;;;;;;0.82;97.98;100643.88;5019055;28;20033;-92
2023/03/06 04:17:34;;;;;;;;;;;;;;;0.88;96.56;100650.16;5009258;28;20046;-91
2023/03/06 04:20:03;;;;;;;10.88;5.45;;;;;;;0.81;97.18;100649.81;5019732;28;19963;-92
2023/03/06 04:22:32;;;;;;;12.70;6.53;;;;;;;0.77;97.50;100642.72;4998750;28;20033;-93
2023/03/06 04:24:57;;;;;;;11.38;6.30;;;;;;;0.76;98.26;100645.19;5019289;28;20034;-91
2023/03/06 04:27:22;;;;;;;13.52;7.00;;;;;;;0.73;98.42;100645.03;4996961;28;20529;-91
2023/03/06 04:29:48;;;;;;;14.35;7.55;;;;;;;0.69;99.26;100646.50;5010448;28;20022;-92
2023/03/06 04:32:13;;;;;;;12.95;6.88;;;;;;;0.66;99.32;100638.63;5023352;28;20640;-92
2023/03/06 04:34:38;;;;;;;13.23;7.10;;;;;;;0.64;99.54;100635.09;5006864;28;20504;-92
2023/03/06 04:37:04;;;;;;;13.70;7.30;;;;;;;0.64;100.00;100635.97;5024817;28;20512;-93
2023/03/06 04:39:29;;;;;;;15.90;7.80;;;;;;;0.63;100.00;100635.88;4986737;28;20097;-93
2023/03/06 04:41:55;;;;;;;13.93;7.35;;;;;;;0.64;100.00;100635.09;4975959;28;20118;-91
2023/03/06 04:44:23;;;;;;;12.95;7.78;;;;;;;0.64;100.00;100638.53;4988524;28;20034;-93
2023/03/06 04:46:48;;;;;;;13.60;7.72;;;;;;;0.65;100.00;100632.63;4999523;28;20037;-92
2023/03/06 04:49:13;;;;;;;15.18;7.70;;;;;;;0.65;100.00;100631.72;5006674;28;20409;-91
2023/03/06 04:51:41;;;;;;;14.57;7.93;;;;;;;0.67;100.00;100625.03;4981680;28;20080;-92
2023/03/06 04:54:07;;;;;;;15.57;8.07;;;;;;;0.69;100.00;100615.72;5005241;28;20040;-91
2023/03/06 04:56:33;;;;;;;15.88;7.93;;;;;;;0.69;100.00;100633.69;4998803;28;20021;-92
2023/03/06 04:58:58;;;;;;;16.52;7.57;;;;;;;0.68;100.00;100621.66;4981345;28;20487;-92
2023/03/06 05:01:24;;;;;;;16.10;8.65;;;;;;;0.67;100.00;100625.03;5008449;28;20028;-92
2023/03/06 05:03:52;;;;;;;15.57;8.75;;;;;;;0.68;100.00;100619.06;4991300;28;20454;-93
2023/03/06 05:06:18;;;;;;;15.20;8.38;;;;;;;0.73;100.00;100627.94;4998964;28;20022;-92
2023/03/06 05:08:46;;;;;;;16.70;7.80;;;;;;;0.74;100.00;100619.47;4985037;28;20076;-93
2023/03/06 05:11:16;;;;;;;15.68;8.55;;;;;;;0.73;100.00;100617.69;4991315;28;20109;-93
2023/03/06 05:13:42;;;;;;;16.60;8.60;;;;;;;0.77;100.00;100617.06;5001988;28;20025;-93
2023/03/06 05:16:07;;;;;;;17.27;8.75;;;;;;;0.78;100.00;100613.72;5006941;28;20960;-93
2023/03/06 05:18:37;;;;;;;16.20;8.70;;;;;;;0.81;100.00;100618.13;5001449;28;20064;-92
2023/03/06 05:21:03;;;;;;;16.30;8.88;;;;;;;0.77;100.00;100617.06;5003806;28;20502;-94
2023/03/06 05:23:30;;;;;;;17.50;9.00;;;;;;;0.77;100.00;100611.94;4983951;28;20022;-93
2023/03/06 05:26:04;;;;;;;16.60;8.98;;;;;;;0.76;100.00;100605.03;4986861;28;20114;-93
2023/03/06 05:28:29;;;;;;;17.13;8.90;;;;;;;0.79;100.00;100600.09;5005846;28;20029;-92
2023/03/06 05:30:54;;;;;;;17.17;8.60;;;;;;;0.79;100.00;100602.66;5007885;28;20100;-93
2023/03/06 05:33:23;;;;;;;17.73;9.45;;;;;;;0.80;100.00;100601.00;5006943;28;20021;-94
2023/03/06 05:35:49;;;;;;;17.42;8.98;;;;;;;0.82;100.00;100596.81;4984744;28;20030;-92
2023/03/06 05:38:15;;;;;;;18.98;9.38;;;;;;;0.81;100.00;100598.53;5001083;28;20405;-92
2023/03/06 05:40:45;;;;;;;17.27;9.27;;;;;;;0.80;100.00;100595.88;4976359;28;20394;-92
2023/03/06 05:43:16;;;;;;;17.67;9.20;;;;;;;0.77;100.00;100596.56;4982831;28;20141;-93
2023/03/06 05:45:41;;;;;;;18.50;9.40;;;;;;;0.79;100.00;100600.09;5005858;28;20026;-93
2023/03/06 05:48:07;;;;;;;17.98;9.68;;;;;;;0.83;100.00;100601.16;4988071;28;20124;-92
2023/03/06 05:50:33;;;;;;;19.42;9.85;;;;;;;0.82;100.00;100600.25;5006031;28;20030;-92
2023/03/06 05:52:58;;;;;;;18.42;9.80;;;;;;;0.82;100.00;100595.13;4997013;28;20044;-92
2023/03/06 05:55:24;;;;;;;17.27;9.43;;;;;;;0.88;100.00;100593.75;4997591;28;20085;-93
2023/03/06 05:57:50;;;;;;;18.73;9.80;;;;;;;0.87;100.00;100582.59;4978478;28;20021;-92
2023/03/06 06:00:19;;;;;;;19.13;10.23;;;;;;;0.87;100.00;100582.59;5007498;28;20281;-92
2023/03/06 06:02:47;;;;;;;19.65;10.35;;;;;;;0.86;100.00;100583.38;5004476;28;20521;-93
2023/03/06 06:05:16;;;;;;;21.23;9.93;;;;;;;0.85;100.00;100589.31;5007932;28;20022;-92
2023/03/06 06:07:41;;;;;;;18.73;9.32;;;;;;;0.86;100.00;100596.22;4989680;28;20037;-91
2023/03/06 06:10:08;;;;;;;18.10;9.50;;;;;;;0.87;100.00;100592.88;4989091;28;20037;-92
2023/03/06 06:12:33;;;;;;;18.60;9.85;;;;;;;0.86;100.00;100585.97;4985028;28;20035;-93
2023/03/06 06:15:02;;;;;;;21.88;10.20;;;;;;;0.83;100.00;100589.22;4975609;28;20030;-92
2023/03/06 06:17:27;;;;;;;19.17;9.63;;;;;;;0.90;100.00;100584.44;4997055;28;20035;-92
2023/03/06 06:19:53;;;;;;;19.35;9.93;;;;;;;0.92;100.00;100588.88;5002030;28;20105;-92
2023/03/06 06:22:21;;;;;;;17.42;9.35;;;;;;;0.92;100.00;100585.44;5002573;28;20035;-92
2023/03/06 06:24:46;;;;;;;16.13;9.10;;;;;;;0.94;100.00;100583.81;4978286;28;20030;-93
2023/03/06 06:27:11;;;;;;;17.73;10.27;;;;;;;0.89;100.00;100581.00;5006426;28;20041;-92
2023/03/06 06:29:37;;;;;;;19.48;10.80;;;;;;;0.91;100.00;100583.66;4991342;28;20030;-93
2023/03/06 06:32:02;;;;;;;19.65;10.77;;;;;;;0.92;100.00;100576.03;4982990;28;20541;-92
2023/03/06 06:34:27;;;;;;;17.60;10.02;;;;;;;0.90;100.00;100581.88;5000750;28;20435;-92
2023/03/06 06:36:56;;;;;;;19.95;10.35;;;;;;;0.91;100.00;100581.97;5007481;28;20025;-91
2023/03/06 06:39:24;;;;;;;21.65;11.02;;;;;;;0.91;100.00;100581.09;4986244;28;20045;-92
2023/03/06 06:41:57;;;;;;;19.90;10.18;;;;;;;0.92;100.00;100586.31;5010868;28;20111;-93
2023/03/06 06:44:22;;;;;;;19.52;9.98;;;;;;;0.93;100.00;100584.63;5011197;28;20025;-92
2023/03/06 06:46:50;;;;;;;20.27;9.85;;;;;;;0.96;100.00;100589.94;4993407;28;20072;-93
2023/03/06 06:49:19;;;;;;;21.10;10.85;;;;;;;0.98;100.00;100580.66;4992073;28;20037;-92
2023/03/06 06:51:49;;;;;;;20.75;10.38;;;;;;;0.97;100.00;100581.44;4993267;28;20050;-93
2023/03/06 06:54:14;;;;;;;19.00;10.15;;;;;;;1.00;100.00;100589.31;4992767;28;20120;-93
2023/03/06 06:56:40;;;;;;;19.83;10.10;;;;;;;1.01;100.00;100576.59;4993491;28;20120;-93
2023/03/06 06:59:05;;;;;;;20.75;10.93;;;;;;;1.02;100.00;100577.47;4992861;28;20113;-93
2023/03/06 07:01:31;;;;;;;20.83;11.23;;;;;;;1.03;100.00;100576.69;5011548;28;20033;-92
2023/03/06 07:03:59;;;;;;;21.90;10.48;;;;;;;1.08;100.00;100593.22;4994982;28;20054;-92
2023/03/06 07:06:25;;;;;;;21.42;10.98;;;;;;;1.11;100.00;100595.94;4993812;28;20109;-92
2023/03/06 07:08:50;;;;;;;20.08;10.45;;;;;;;1.14;100.00;100587.53;4994218;28;20118;-93
2023/03/06 07:11:17;;;;;;;21.52;11.85;;;;;;;1.13;100.00;100596.94;4994407;28;20026;-93
2023/03/06 07:13:44;;;;;;;21.35;11.27;;;;;;;1.15;100.00;100595.31;4993314;28;20022;-92
2023/03/06 07:16:12;;;;;;;21.90;12.38;;;;;;;1.19;100.00;100593.84;5010820;28;20076;-93
2023/03/06 07:18:37;;;;;;;20.33;10.27;;;;;;;1.21;100.00;100595.66;4994194;28;20072;-92
2023/03/06 07:21:03;;;;;;;21.55;10.65;;;;;;;1.27;100.00;100599.41;4993005;28;20037;-93
2023/03/06 07:23:28;;;;;;;21.80;11.48;;;;;;;1.30;100.00;100594.44;4993523;28;20045;-93
2023/03/06 07:25:54;;;;;;;21.30;11.82;;;;;;;1.35;100.00;100599.03;5010540;28;20103;-92
2023/03/06 07:28:23;;;;;;;24.38;12.20;;;;;;;1.39;100.00;100597.50;4993191;28;20030;-93
2023/03/06 07:30:51;;;;;;;24.15;12.40;;;;;;;1.44;100.00;100596.09;4993786;28;20080;-93
2023/03/06 07:33:21;;;;;;;22.60;11.88;;;;;;;1.44;100.00;100593.53;5012331;28;20049;-93
2023/03/06 07:35:49;;;;;;;25.15;12.68;;;;;;;1.48;100.00;100589.47;4994634;28;20113;-93
2023/03/06 07:38:15;;;;;;;22.90;12.43;;;;;;;1.48;100.00;100587.78;5011071;28;20117;-93
2023/03/06 07:40:43;;;;;;;22.48;11.73;;;;;;;1.49;100.00;100584.41;4994609;28;20112;-92
2023/03/06 07:43:10;;;;;;;25.65;12.63;;;;;;;1.55;100.00;100594.13;4995452;28;20029;-93
2023/03/06 07:45:35;;;;;;;23.27;12.73;;;;;;;1.62;100.00;100596.22;4995267;28;20050;-92
2023/03/06 07:48:01;;;;;;;24.38;13.20;;;;;;;1.66;100.00;100589.59;4994937;28;20403;-93
2023/03/06 07:50:29;;;;;;;24.27;12.90;;;;;;;1.71;100.00;100590.75;5011468;28;20026;-93
2023/03/06 07:52:55;;;;;;;24.30;12.50;;;;;;;1.75;100.00;100595.22;5011234;28;20032;-92
2023/03/06 07:55:23;;;;;;;25.92;12.63;;;;;;;1.78;100.00;100600.53;5012437;28;20030;-92
2023/03/06 07:57:51;;;;;;;25.13;12.35;;;;;;;1.77;100.00;100598.78;5012470;28;20026;-92
2023/03/06 08:00:20;;;;;;;25.90;13.20;;;;;;;1.77;100.00;100600.44;4990655;28;20041;-93
2023/03/06 08:02:48;;;;;;;25.92;12.93;;;;;;;1.76;100.00;100597.00;5010986;28;20038;-93
2023/03/06 08:05:15;;;;;;;26.00;13.40;;;;;;;1.79;100.00;100601.44;4994391;28;20168;-93
2023/03/06 08:07:44;;;;;;;24.73;12.80;;;;;;;1.82;100.00;100597.34;5011944;28;20506;-93
2023/03/06 08:10:14;;;;;;;26.05;12.43;;;;;;;1.85;100.00;100607.78;4993901;28;20076;-93
2023/03/06 08:12:40;;;;;;;25.42;13.43;;;;;;;1.88;100.00;100601.94;4994081;28;20101;-93
2023/03/06 08:15:10;;;;;;;25.50;12.52;;;;;;;1.90;100.00;100598.66;4997561;28;20555;-94
2023/03/06 08:17:38;;;;;;;24.20;12.90;;;;;;;1.96;100.00;100597.22;5014227;28;20643;-93
2023/03/06 08:20:04;;;;;;;23.38;12.77;;;;;;;2.01;100.00;100595.78;5010225;28;20112;-94
2023/03/06 08:22:30;;;;;;;26.48;13.25;;;;;;;2.06;100.00;100595.22;5011408;28;20026;-94
2023/03/06 08:24:55;;;;;;;24.58;12.15;;;;;;;2.13;100.00;100600.69;5010231;28;20018;-93
2023/03/06 08:27:23;;;;;;;21.55;11.77;;;;;;;2.16;100.00;100600.84;5007950;28;20037;-93
2023/03/06 08:29:51;;;;;;;23.17;11.52;;;;;;;2.18;100.00;100596.69;5005992;28;20029;-94
2023/03/06 08:32:19;;;;;;;24.42;12.10;;;;;;;2.16;100.00;100594.03;5007110;28;20970;-94
2023/03/06 08:34:49;;;;;;;22.50;12.32;;;;;;;2.16;100.00;100596.59;5006704;28;20022;-94
2023/03/06 08:37:15;;;;;;;25.77;12.40;;;;;;;2.18;100.00;100596.69;5007697;28;20057;-93
2023/03/06 08:39:43;;;;;;;25.70;12.70;;;;;;;2.23;100.00;100596.13;5006545;28;20499;-94
2023/03/06 08:42:09;;;;;;;23.63;12.63;;;;;;;2.34;100.00;100598.38;4992342;28;20038;-95
2023/03/06 08:44:35;;;;;;;23.33;12.35;;;;;;;2.43;100.00;100596.28;5008547;28;20025;-93
2023/03/06 08:47:03;;;;;;;24.90;12.70;;;;;;;2.52;100.00;100596.78;4994428;28;20083;-95
2023/03/06 08:49:31;;;;;;;21.95;11.52;;;;;;;2.64;100.00;100600.78;4993427;28;20029;-93
2023/03/06 08:52:02;;;;;;;23.15;12.60;;;;;;;2.76;100.00;100602.28;4994184;28;20025;-93
2023/03/06 08:54:28;;;;;;;21.75;11.65;;;;;;;2.82;100.00;100599.13;4994480;28;20033;-94
2023/03/06 08:56:56;;;;;;;24.00;12.13;;;;;;;2.82;100.00;100600.84;4988756;28;20038;-94
2023/03/06 08:59:23;;;;;;;22.17;11.50;;;;;;;2.85;100.00;100603.56;4993513;28;20049;-93
2023/03/06 09:01:48;;;;;;;23.20;12.45;;;;;;;2.86;100.00;100601.06;4993235;28;20526;-93
2023/03/06 09:04:14;;;;;;;21.77;11.68;;;;;;;2.90;100.00;100597.84;4993658;28;20053;-92
2023/03/06 09:06:44;;;;;;;25.02;12.50;;;;;;;2.96;100.00;100608.44;4992350;28;20384;-93
2023/03/06 09:09:09;;;;;;;24.00;12.27;;;;;;;3.02;100.00;100612.13;4993409;28;20033;-91
2023/03/06 09:11:35;;;;;;;25.80;11.63;;;;;;;3.05;100.00;100599.41;5009588;28;20030;-93
2023/03/06 09:14:01;;;;;;;23.25;12.00;;;;;;;3.14;100.00;100602.44;5010240;28;20033;-93
2023/03/06 09:16:29;;;;;;;21.08;11.27;;;;;;;3.21;100.00;100594.22;5010155;28;20112;-93
2023/03/06 09:18:57;;;;;;;20.67;11.73;;;;;;;3.26;100.00;100600.47;4989880;28;20025;-93
2023/03/06 09:21:23;;;;;;;21.17;11.57;;;;;;;3.36;100.00;100598.34;5000080;28;20030;-94
2023/03/06 09:23:49;;;;;;;19.73;10.55;;;;;;;3.41;100.00;100602.03;4993172;28;20033;-92
2023/03/06 09:26:15;;;;;;;21.67;10.80;;;;;;;3.44;100.00;100607.34;4993312;28;20033;-93
2023/03/06 09:28:43;;;;;;;20.00;10.68;;;;;;;3.50;100.00;100599.03;4992848;28;20097;-94
2023/03/06 09:31:25;;;;;;;21.75;11.13;;;;;;;3.54;100.00;100606.09;4991929;28;20029;-93
2023/03/06 09:33:51;;;;;;;21.00;10.40;;;;;;;3.58;100.00;100605.44;4993585;28;20022;-94
2023/03/06 09:36:19;;;;;;;19.83;10.48;;;;;;;3.60;100.00;100606.38;4992349;28;20033;-95
2023/03/06 09:38:46;;;;;;;20.23;10.85;;;;;;;3.65;100.00;100610.06;5011645;28;20053;-93
2023/03/06 09:41:32;;;;;;;17.80;10.02;;;;;;;3.69;100.00;100609.38;5004775;28;20026;-94
2023/03/06 09:44:03;;;;;;;18.88;9.60;;;;;;;3.70;100.00;100610.28;5006331;28;20034;-94
2023/03/06 09:46:54;;;;;;;19.75;10.32;;;;;;;3.77;100.00;100609.75;5007622;28;20034;-94
2023/03/06 09:49:28;;;;;;;21.40;10.35;;;;;;;3.79;100.00;100608.13;5000380;28;20025;-94
2023/03/06 09:52:17;;;;;;;19.67;10.25;;;;;;;3.79;99.97;100606.44;5026725;28;20036;-94
2023/03/06 09:55:15;;;;;;;21.23;10.82;;;;;;;3.80;99.45;100608.19;5016672;28;20108;-95
2023/03/06 09:58:07;;;;;;;18.55;10.23;;;;;;;3.81;98.91;100609.97;5009306;28;20051;-94
2023/03/06 10:00:52;;;;;;;22.92;11.25;;;;;;;3.81;98.92;100609.09;5027222;28;20041;-94
2023/03/06 10:03:29;;;;;;;19.33;10.68;;;;;;;3.82;99.18;100606.59;5020957;28;20046;-94
2023/03/06 10:06:04;;;;;;;20.98;10.55;;;;;;;3.83;98.16;100604.88;5006154;28;20057;-93
2023/03/06 10:08:49;;;;;;;21.13;10.50;;;;;;;3.85;98.10;100605.84;5025564;28;20025;-92
2023/03/06 10:11:23;;;;;;;21.88;10.93;;;;;;;3.85;98.63;100600.69;5010415;28;20037;-93
2023/03/06 10:14:16;;;;;;;21.98;11.23;;;;;;;3.93;98.91;100601.06;5028074;28;21485;-94
2023/03/06 10:16:41;;;;;;;20.52;10.63;;;;;;;3.97;99.22;100596.09;5009456;28;20021;-93
2023/03/06 10:19:14;;;;;;;18.05;10.20;;;;;;;4.06;98.03;100592.19;5008906;28;20395;-92
2023/03/06 10:21:56;;;;;;;20.67;10.82;;;;;;;4.13;97.70;100596.81;5025938;28;20514;-92
2023/03/06 10:24:39;;;;;;;19.88;10.15;;;;;;;4.19;97.06;100599.66;5030379;28;20061;-95
2023/03/06 10:27:15;;;;;;;20.27;10.75;;;;;;;4.23;97.42;100600.66;5034577;28;20032;-94
2023/03/06 10:29:52;;;;;;;21.02;10.98;;;;;;;4.27;96.31;100594.84;5030731;28;20453;-93
2023/03/06 10:32:26;;;;;;;19.27;10.32;;;;;;;4.30;95.91;100595.88;5010060;28;20044;-94
2023/03/06 10:34:53;;;;;;;21.23;11.18;;;;;;;4.37;97.15;100597.03;5016583;28;20407;-94
2023/03/06 10:37:21;;;;;;;21.88;11.23;;;;;;;4.43;96.64;100597.31;5016482;28;20038;-94
2023/03/06 10:39:56;;;;;;;24.38;12.15;;;;;;;4.47;95.38;100593.16;5009463;28;20100;-94
2023/03/06 10:42:26;;;;;;;25.10;12.35;;;;;;;4.45;95.29;100594.81;5016898;28;20322;-95
2023/03/06 10:45:12;;;;;;;21.17;10.32;;;;;;;4.49;95.57;100584.69;5007422;28;20041;-96
2023/03/06 10:47:39;;;;;;;18.25;9.40;;;;;;;4.59;95.09;100582.47;5003837;28;20061;-96
2023/03/06 10:50:25;;;;;;;15.82;9.23;;;;;;;4.73;93.29;100580.50;5002355;28;20517;-96
2023/03/06 10:53:03;;;;;;;19.08;9.82;;;;;;;4.95;93.30;100588.34;5007483;28;20022;-96
2023/03/06 10:55:49;;;;;;;20.90;10.88;;;;;;;5.04;91.31;100583.56;5028406;28;20029;-97
2023/03/06 10:58:23;;;;;;;19.73;10.27;;;;;;;5.16;92.44;100583.19;5030431;28;20029;-96
2023/03/06 11:01:19;;;;;;;19.52;10.38;;;;;;;5.35;91.85;100583.94;5012568;28;20041;-96
2023/03/06 11:03:46;;;;;;;16.20;8.95;;;;;;;5.35;87.95;100583.94;4994812;28;20055;-96
2023/03/06 11:06:38;;;;;;;18.17;9.77;;;;;;;5.26;88.92;100587.03;5001269;28;20121;-96
2023/03/06 11:09:17;;;;;;;18.83;9.70;;;;;;;5.25;89.21;100590.44;5015192;28;20467;-96
2023/03/06 11:12:13;;;;;;;22.48;9.85;;;;;;;5.26;88.76;100586.13;5017848;28;20072;-96
2023/03/06 11:14:41;;;;;;;15.75;8.80;;;;;;;5.27;88.84;100583.66;5031526;28;20052;-96
2023/03/06 11:17:26;;;;;;;19.25;9.60;;;;;;;5.27;88.36;100575.00;5012371;28;20479;-95
2023/03/06 11:20:19;;;;;;;18.52;9.55;;;;;;;5.26;89.10;100576.72;5012620;28;20045;-96
2023/03/06 11:23:01;;;;;;;17.80;9.25;;;;;;;5.24;88.55;100573.16;5010472;28;20025;-96
2023/03/06 11:25:37;;;;;;;19.30;10.20;;;;;;;5.24;87.87;100586.06;5018316;28;20033;-96
2023/03/06 11:28:41;;;;;;;16.13;9.00;;;;;;;5.25;87.68;100572.34;5005665;28;20042;-94
2023/03/06 11:31:17;;;;;;;17.92;8.80;;;;;;;5.21;87.38;100570.47;4997497;28;20053;-94